createdAt,value
2018-07-13T00:01:58.440Z,16.06
2018-07-13T00:05:02.681Z,16.08
2018-07-13T00:08:06.961Z,16.03
2018-07-13T00:11:11.239Z,16.02
2018-07-13T00:14:19.564Z,16.08
2018-07-13T00:17:23.834Z,16.06
2018-07-13T00:20:28.057Z,16.06
2018-07-13T00:23:32.296Z,16.04
2018-07-13T00:26:36.940Z,16.08
2018-07-13T00:29:41.198Z,16.12
2018-07-13T00:32:45.472Z,16.15
2018-07-13T00:35:49.713Z,16.16
2018-07-13T00:38:53.970Z,16.18
2018-07-13T00:41:57.981Z,16.16
2018-07-13T00:45:02.276Z,16.16
2018-07-13T00:48:06.512Z,16.09
2018-07-13T00:51:10.817Z,16.08
2018-07-13T00:54:15.028Z,16.15
2018-07-13T00:57:19.301Z,16.18
2018-07-13T01:00:30.827Z,16.20
2018-07-13T01:03:35.077Z,16.26
2018-07-13T01:06:39.352Z,16.25
2018-07-13T01:09:43.589Z,16.26
2018-07-13T01:12:47.942Z,16.30
2018-07-13T01:15:52.183Z,16.28
2018-07-13T01:18:56.486Z,16.32
2018-07-13T01:22:00.753Z,16.35
2018-07-13T01:25:05.021Z,16.35
2018-07-13T01:28:09.088Z,16.41
2018-07-13T01:31:13.286Z,16.47
2018-07-13T01:34:17.496Z,16.52
2018-07-13T01:37:21.741Z,16.50
2018-07-13T01:40:25.997Z,16.53
2018-07-13T01:43:30.298Z,16.57
2018-07-13T01:46:34.568Z,16.58
2018-07-13T01:49:38.793Z,16.59
2018-07-13T01:52:43.098Z,16.58
2018-07-13T01:55:47.343Z,16.61
2018-07-13T01:58:51.836Z,16.63
2018-07-13T02:01:56.088Z,16.62
2018-07-13T02:05:00.332Z,16.64
2018-07-13T02:08:04.625Z,16.65
2018-07-13T02:11:08.872Z,16.62
2018-07-13T02:14:13.154Z,16.59
2018-07-13T02:17:17.463Z,16.57
2018-07-13T02:20:21.754Z,16.57
2018-07-13T02:23:26.068Z,16.58
2018-07-13T02:26:30.385Z,16.58
2018-07-13T02:29:34.644Z,16.60
2018-07-13T02:32:38.881Z,16.55
2018-07-13T02:35:43.117Z,16.53
2018-07-13T02:38:47.370Z,16.51
2018-07-13T02:41:51.612Z,16.50
2018-07-13T02:44:55.847Z,16.44
2018-07-13T02:48:00.142Z,16.38
2018-07-13T02:51:04.411Z,16.38
2018-07-13T02:54:08.660Z,16.35
2018-07-13T02:57:12.893Z,16.30
2018-07-13T03:00:17.169Z,16.27
2018-07-13T03:03:21.425Z,16.24
2018-07-13T03:06:25.707Z,16.21
2018-07-13T03:09:29.940Z,16.18
2018-07-13T03:12:34.181Z,16.15
2018-07-13T03:15:38.518Z,16.11
2018-07-13T03:18:42.758Z,16.08
2018-07-13T03:21:46.977Z,16.05
2018-07-13T03:24:51.235Z,16.00
2018-07-13T03:27:55.481Z,15.98
2018-07-13T03:30:59.709Z,15.99
2018-07-13T03:34:03.978Z,15.98
2018-07-13T03:37:08.237Z,15.96
2018-07-13T03:40:12.485Z,15.90
2018-07-13T03:43:16.688Z,15.91
2018-07-13T03:46:20.944Z,15.96
2018-07-13T03:49:25.172Z,15.97
2018-07-13T03:52:29.468Z,15.95
2018-07-13T03:55:33.728Z,15.98
2018-07-13T03:58:37.969Z,16.03
2018-07-13T04:01:42.186Z,16.05
2018-07-13T04:04:46.488Z,16.09
2018-07-13T04:07:50.938Z,16.17
2018-07-13T04:10:55.194Z,16.16
2018-07-13T04:13:59.438Z,16.18
2018-07-13T04:17:03.717Z,16.22
2018-07-13T04:20:07.979Z,16.24
2018-07-13T04:23:12.246Z,16.27
2018-07-13T04:26:16.487Z,16.28
2018-07-13T04:29:21.203Z,16.32
2018-07-13T04:32:25.444Z,16.35
2018-07-13T04:35:29.683Z,16.39
2018-07-13T04:38:33.931Z,16.42
2018-07-13T04:41:38.224Z,16.45
2018-07-13T04:44:42.453Z,16.52
2018-07-13T04:47:46.490Z,16.54
2018-07-13T04:50:50.748Z,16.56
2018-07-13T04:53:55.091Z,16.63
2018-07-13T04:56:59.365Z,16.68
2018-07-13T05:00:03.634Z,16.71
2018-07-13T05:03:07.884Z,16.70
2018-07-13T05:06:12.118Z,16.74
2018-07-13T05:09:16.486Z,16.76
2018-07-13T05:12:20.705Z,16.81
2018-07-13T05:15:24.927Z,16.84
2018-07-13T05:18:29.217Z,16.90
2018-07-13T05:21:33.501Z,16.96
2018-07-13T05:24:37.733Z,16.99
2018-07-13T05:27:42.135Z,17.00
2018-07-13T05:30:46.540Z,17.06
2018-07-13T05:33:50.857Z,17.12
2018-07-13T05:36:55.085Z,17.20
2018-07-13T05:39:59.341Z,17.26
2018-07-13T05:43:03.661Z,17.28
2018-07-13T05:46:07.933Z,17.32
2018-07-13T05:49:12.213Z,17.40
2018-07-13T05:52:16.455Z,17.47
2018-07-13T05:55:20.765Z,17.51
2018-07-13T05:58:25.063Z,17.57
2018-07-13T06:01:29.304Z,17.59
2018-07-13T06:04:33.541Z,17.67
2018-07-13T06:07:37.893Z,17.77
2018-07-13T06:10:42.150Z,17.81
2018-07-13T06:13:46.419Z,17.81
2018-07-13T06:16:50.652Z,17.88
2018-07-13T06:19:54.895Z,17.99
2018-07-13T06:22:59.123Z,18.03
2018-07-13T06:26:03.381Z,18.08
2018-07-13T06:29:07.665Z,18.19
2018-07-13T06:32:11.880Z,18.29
2018-07-13T06:35:16.115Z,18.32
2018-07-13T06:38:20.343Z,18.37
2018-07-13T06:41:24.569Z,18.38
2018-07-13T06:44:28.837Z,18.42
2018-07-13T06:47:33.061Z,18.42
2018-07-13T06:50:37.856Z,18.53
2018-07-13T06:53:42.033Z,18.68
2018-07-13T06:56:46.354Z,18.79
2018-07-13T06:59:50.517Z,18.91
2018-07-13T07:02:54.779Z,19.00
2018-07-13T07:06:03.245Z,19.07
2018-07-13T07:09:07.547Z,19.14
2018-07-13T07:12:54.521Z,19.25
2018-07-13T07:15:59.225Z,19.41
2018-07-13T07:19:03.449Z,19.46
2018-07-13T07:22:07.857Z,19.56
2018-07-13T07:25:12.074Z,19.72
2018-07-13T07:28:16.344Z,19.90
2018-07-13T07:31:20.603Z,19.94
2018-07-13T07:34:24.854Z,20.02
2018-07-13T07:37:29.082Z,20.10
2018-07-13T07:40:33.402Z,20.15
2018-07-13T07:43:37.660Z,20.26
2018-07-13T07:46:41.909Z,20.35
2018-07-13T07:49:46.178Z,20.48
2018-07-13T07:52:50.428Z,20.62
2018-07-13T07:55:54.663Z,20.67
2018-07-13T07:58:58.896Z,20.79
2018-07-13T08:02:03.131Z,20.91
2018-07-13T08:05:07.440Z,21.01
2018-07-13T08:08:11.708Z,21.06
2018-07-13T08:11:16.314Z,21.17
2018-07-13T08:14:20.712Z,21.38
2018-07-13T08:17:25.093Z,21.50
2018-07-13T08:20:35.149Z,21.67
2018-07-13T08:23:39.891Z,21.77
2018-07-13T08:26:44.695Z,21.88
2018-07-13T08:29:49.541Z,22.03
2018-07-13T08:32:53.802Z,22.14
2018-07-13T08:35:58.044Z,22.21
2018-07-13T08:39:02.300Z,22.31
2018-07-13T08:42:06.513Z,22.47
2018-07-13T08:45:10.758Z,22.59
2018-07-13T08:48:14.988Z,22.72
2018-07-13T08:51:19.298Z,22.70
2018-07-13T08:54:23.498Z,22.69
2018-07-13T08:57:27.716Z,22.70
2018-07-13T09:00:32.017Z,22.91
2018-07-13T09:03:36.256Z,23.09
2018-07-13T09:06:40.521Z,23.12
2018-07-13T09:09:44.768Z,23.26
2018-07-13T09:12:49.038Z,23.39
2018-07-13T09:15:53.241Z,23.46
2018-07-13T09:18:57.681Z,23.37
2018-07-13T09:22:02.055Z,23.31
2018-07-13T09:25:06.617Z,23.31
2018-07-13T09:28:10.865Z,23.41
2018-07-13T09:31:15.105Z,23.58
2018-07-13T09:34:19.317Z,23.64
2018-07-13T09:37:23.581Z,23.63
2018-07-13T09:40:27.820Z,23.68
2018-07-13T09:43:32.068Z,23.69
2018-07-13T09:46:36.375Z,23.58
2018-07-13T09:49:40.603Z,23.61
2018-07-13T09:52:44.837Z,23.67
2018-07-13T09:55:49.068Z,23.75
2018-07-13T09:58:53.330Z,23.82
2018-07-13T10:01:57.580Z,23.82
2018-07-13T10:05:01.887Z,23.90
2018-07-13T10:08:06.114Z,23.99
2018-07-13T10:11:10.369Z,23.96
2018-07-13T10:14:14.576Z,23.99
2018-07-13T10:17:18.805Z,24.04
2018-07-13T10:20:23.044Z,24.16
2018-07-13T10:23:27.774Z,24.33
2018-07-13T10:26:36.234Z,24.36
2018-07-13T10:29:47.181Z,24.33
2018-07-13T10:32:51.490Z,24.36
2018-07-13T10:35:55.776Z,24.33
2018-07-13T10:39:00.066Z,24.38
2018-07-13T10:42:04.316Z,24.52
2018-07-13T10:45:08.598Z,24.49
2018-07-13T10:48:12.846Z,24.35
2018-07-13T10:51:16.854Z,24.36
2018-07-13T10:54:21.425Z,24.42
2018-07-13T10:57:25.629Z,24.46
2018-07-13T11:00:29.844Z,24.46
2018-07-13T11:03:34.056Z,24.37
2018-07-13T11:06:38.276Z,24.43
2018-07-13T11:09:42.476Z,24.50
2018-07-13T11:12:46.683Z,24.45
2018-07-13T11:15:50.935Z,24.43
2018-07-13T11:18:55.569Z,24.40
2018-07-13T11:21:59.809Z,24.38
2018-07-13T11:25:04.037Z,24.36
2018-07-13T11:28:08.260Z,24.41
2018-07-13T11:31:12.460Z,24.41
2018-07-13T11:34:16.686Z,24.26
2018-07-13T11:37:21.045Z,24.22
2018-07-13T11:40:25.245Z,24.15
2018-07-13T11:43:29.502Z,24.09
2018-07-13T11:46:33.701Z,24.02
2018-07-13T11:49:37.926Z,24.11
2018-07-13T11:52:42.166Z,24.10
2018-07-13T11:55:46.388Z,24.03
2018-07-13T11:58:50.596Z,23.95
2018-07-13T12:01:54.846Z,23.83
2018-07-13T12:04:59.040Z,23.76
2018-07-13T12:08:03.265Z,23.67
2018-07-13T12:11:07.477Z,23.66
2018-07-13T12:14:11.757Z,23.56
2018-07-13T12:17:16.061Z,23.34
2018-07-13T12:20:20.275Z,23.27
2018-07-13T12:23:24.533Z,23.12
2018-07-13T12:26:28.775Z,23.12
2018-07-13T12:29:32.981Z,23.22
2018-07-13T12:32:37.237Z,23.24
2018-07-13T12:35:41.485Z,23.23
2018-07-13T12:38:45.712Z,23.19
2018-07-13T12:41:50.105Z,23.31
2018-07-13T12:44:54.363Z,23.42
2018-07-13T12:47:58.592Z,23.35
2018-07-13T12:51:02.800Z,23.27
2018-07-13T12:54:07.093Z,23.28
2018-07-13T12:57:11.280Z,23.22
2018-07-13T13:00:15.469Z,23.07
2018-07-13T13:03:19.706Z,22.98
2018-07-13T13:06:23.958Z,23.14
2018-07-13T13:09:28.201Z,23.34
2018-07-13T13:12:32.415Z,23.28
2018-07-13T13:15:36.405Z,23.16
2018-07-13T13:18:40.628Z,23.10
2018-07-13T13:21:44.938Z,23.01
2018-07-13T13:24:49.169Z,23.01
2018-07-13T13:27:54.272Z,23.10
2018-07-13T13:30:58.477Z,23.01
2018-07-13T13:34:02.693Z,22.88
2018-07-13T13:37:06.908Z,22.98
2018-07-13T13:40:11.130Z,23.03
2018-07-13T13:43:15.366Z,22.98
2018-07-13T13:46:19.593Z,22.93
2018-07-13T13:49:23.850Z,22.84
2018-07-13T13:52:28.041Z,22.76
2018-07-13T13:55:32.306Z,22.87
2018-07-13T13:58:36.581Z,22.97
2018-07-13T14:01:40.777Z,22.99
2018-07-13T14:04:45.014Z,23.09
2018-07-13T14:07:49.330Z,23.01
2018-07-13T14:10:53.717Z,22.96
2018-07-13T14:13:57.999Z,23.11
2018-07-13T14:17:02.230Z,23.15
2018-07-13T14:20:06.460Z,23.19
2018-07-13T14:23:10.698Z,23.23
2018-07-13T14:26:14.911Z,23.15
2018-07-13T14:29:19.113Z,23.12
2018-07-13T14:32:23.301Z,23.15
2018-07-13T14:35:27.525Z,23.32
2018-07-13T14:38:31.770Z,23.48
2018-07-13T14:41:36.040Z,23.52
2018-07-13T14:44:40.233Z,23.54
2018-07-13T14:47:44.439Z,23.51
2018-07-13T14:50:48.678Z,23.61
2018-07-13T14:53:52.924Z,23.69
2018-07-13T14:56:57.137Z,23.55
2018-07-13T15:00:01.120Z,23.39
2018-07-13T15:03:05.349Z,23.46
2018-07-13T15:06:09.641Z,23.63
2018-07-13T15:09:13.920Z,23.83
2018-07-13T15:12:18.121Z,23.88
2018-07-13T15:15:22.341Z,23.94
2018-07-13T15:18:26.550Z,23.88
2018-07-13T15:21:30.809Z,23.83
2018-07-13T15:24:35.035Z,23.89
2018-07-13T15:27:39.274Z,23.85
2018-07-13T15:30:43.511Z,23.69
2018-07-13T15:33:47.769Z,23.70
2018-07-13T15:36:52.013Z,23.54
2018-07-13T15:39:56.297Z,23.52
2018-07-13T15:43:00.614Z,23.55
2018-07-13T15:46:04.894Z,23.38
2018-07-13T15:49:09.094Z,23.32
2018-07-13T15:52:13.713Z,23.24
2018-07-13T15:55:17.925Z,23.24
2018-07-13T15:58:22.205Z,23.20
2018-07-13T16:01:26.423Z,22.92
2018-07-13T16:04:30.714Z,22.79
2018-07-13T16:07:35.813Z,22.42
2018-07-13T16:10:40.088Z,22.18
2018-07-13T16:13:44.325Z,22.12
2018-07-13T16:16:48.570Z,22.05
2018-07-13T16:19:52.793Z,21.99
2018-07-13T16:22:57.066Z,21.86
2018-07-13T16:26:01.241Z,21.66
2018-07-13T16:29:05.481Z,21.42
2018-07-13T16:32:09.709Z,21.24
2018-07-13T16:35:13.937Z,21.01
2018-07-13T16:38:18.156Z,20.75
2018-07-13T16:41:22.421Z,20.53
2018-07-13T16:44:26.636Z,20.26
2018-07-13T16:47:30.873Z,20.13
2018-07-13T16:50:35.139Z,19.97
2018-07-13T16:53:39.326Z,19.91
2018-07-13T16:56:43.670Z,19.80
2018-07-13T16:59:47.896Z,19.66
2018-07-13T17:02:51.882Z,19.52
2018-07-13T17:05:56.101Z,19.44
2018-07-13T17:09:00.413Z,19.31
2018-07-13T17:12:04.541Z,19.23
2018-07-13T17:15:08.848Z,19.14
2018-07-13T17:18:13.085Z,19.14
2018-07-13T17:21:17.311Z,19.11
2018-07-13T17:24:21.506Z,19.04
2018-07-13T17:27:25.731Z,18.91
2018-07-13T17:30:29.952Z,18.82
2018-07-13T17:33:35.197Z,18.78
2018-07-13T17:36:39.449Z,18.73
2018-07-13T17:39:43.656Z,18.61
2018-07-13T17:42:47.976Z,18.60
2018-07-13T17:45:52.093Z,18.56
2018-07-13T17:48:56.302Z,18.49
2018-07-13T17:52:00.529Z,18.49
2018-07-13T17:55:04.756Z,18.44
2018-07-13T17:58:09.001Z,18.33
2018-07-13T18:01:13.204Z,18.25
2018-07-13T18:04:17.421Z,18.17
2018-07-13T18:07:21.614Z,18.12
2018-07-13T18:10:26.848Z,18.16
2018-07-13T18:13:31.074Z,18.12
2018-07-13T18:16:35.270Z,18.08
2018-07-13T18:19:39.460Z,18.06
2018-07-13T18:22:43.677Z,18.03
2018-07-13T18:25:47.868Z,18.01
2018-07-13T18:28:52.109Z,18.00
2018-07-13T18:31:56.350Z,18.01
2018-07-13T18:35:00.561Z,17.99
2018-07-13T18:38:04.787Z,17.97
2018-07-13T18:41:09.017Z,17.87
2018-07-13T18:44:13.267Z,17.79
2018-07-13T18:47:17.431Z,17.71
2018-07-13T18:50:21.628Z,17.69
2018-07-13T18:53:25.852Z,17.65
2018-07-13T18:56:30.057Z,17.59
2018-07-13T18:59:34.261Z,17.52
2018-07-13T19:02:38.478Z,17.40
2018-07-13T19:05:42.714Z,17.33
2018-07-13T19:08:46.901Z,17.19
2018-07-13T19:11:51.138Z,17.12
2018-07-13T19:14:55.349Z,17.05
2018-07-13T19:17:59.532Z,17.02
2018-07-13T19:21:03.776Z,16.96
2018-07-13T19:24:07.997Z,16.92
2018-07-13T19:27:12.194Z,16.90
2018-07-13T19:30:16.445Z,16.89
2018-07-13T19:33:20.680Z,16.87
2018-07-13T19:36:24.941Z,16.86
2018-07-13T19:39:29.198Z,16.83
2018-07-13T19:42:33.394Z,16.81
2018-07-13T19:45:37.617Z,16.76
2018-07-13T19:48:42.814Z,16.75
2018-07-13T19:51:47.029Z,16.70
2018-07-13T19:54:51.264Z,16.69
2018-07-13T19:57:55.465Z,16.69
2018-07-13T20:00:59.648Z,16.62
2018-07-13T20:04:03.863Z,16.57
2018-07-13T20:07:08.121Z,16.50
2018-07-13T20:10:12.346Z,16.46
2018-07-13T20:13:16.557Z,16.44
2018-07-13T20:16:20.781Z,16.38
2018-07-13T20:19:25.016Z,16.37
2018-07-13T20:22:29.237Z,16.36
2018-07-13T20:25:33.441Z,16.39
2018-07-13T20:28:37.639Z,16.42
2018-07-13T20:31:41.869Z,16.46
2018-07-13T20:34:46.095Z,16.46
2018-07-13T20:37:50.298Z,16.44
2018-07-13T20:40:54.570Z,16.49
2018-07-13T20:43:58.792Z,16.47
2018-07-13T20:47:03.859Z,16.49
2018-07-13T20:50:08.077Z,16.46
2018-07-13T20:53:12.316Z,16.46
2018-07-13T20:56:16.525Z,16.49
2018-07-13T20:59:20.753Z,16.52
2018-07-13T21:02:24.930Z,16.52
2018-07-13T21:05:29.158Z,16.54
2018-07-13T21:08:33.373Z,16.57
2018-07-13T21:11:37.589Z,16.55
2018-07-13T21:14:41.776Z,16.56
2018-07-13T21:17:45.988Z,16.50
2018-07-13T21:20:50.268Z,16.52
2018-07-13T21:23:54.412Z,16.51
2018-07-13T21:26:58.642Z,16.42
2018-07-13T21:30:03.870Z,16.35
2018-07-13T21:33:07.884Z,16.28
2018-07-13T21:36:12.062Z,16.25
2018-07-13T21:39:16.268Z,16.24
2018-07-13T21:42:20.452Z,16.29
2018-07-13T21:45:24.738Z,16.28
2018-07-13T21:48:28.888Z,16.32
2018-07-13T21:51:33.114Z,16.32
2018-07-13T21:54:37.322Z,16.31
2018-07-13T21:57:41.542Z,16.33
2018-07-13T22:00:45.827Z,16.32
2018-07-13T22:03:50.037Z,16.27
2018-07-13T22:06:54.246Z,16.23
2018-07-13T22:09:58.448Z,16.15
2018-07-13T22:13:02.642Z,16.16
2018-07-13T22:16:06.993Z,16.19
2018-07-13T22:19:11.136Z,16.21
2018-07-13T22:22:15.382Z,16.20
2018-07-13T22:25:19.585Z,16.17
2018-07-13T22:28:23.604Z,16.26
2018-07-13T22:31:27.817Z,16.22
2018-07-13T22:34:32.029Z,16.22
2018-07-13T22:37:36.232Z,16.19
2018-07-13T22:40:40.435Z,16.14
2018-07-13T22:43:44.620Z,16.15
2018-07-13T22:46:48.833Z,16.14
2018-07-13T22:49:53.028Z,16.15
2018-07-13T22:52:57.247Z,16.16
2018-07-13T22:56:01.445Z,16.14
2018-07-13T22:59:05.672Z,16.12
2018-07-13T23:02:09.877Z,16.11
2018-07-13T23:05:14.086Z,16.16
2018-07-13T23:08:18.325Z,16.22
2018-07-13T23:11:22.521Z,16.16
2018-07-13T23:14:26.774Z,16.15
2018-07-13T23:17:30.998Z,16.11
2018-07-13T23:20:35.796Z,16.09
2018-07-13T23:23:39.969Z,16.08
2018-07-13T23:26:44.180Z,16.09
2018-07-13T23:29:48.382Z,16.12
2018-07-13T23:32:52.600Z,16.12
2018-07-13T23:35:56.785Z,16.12
2018-07-13T23:39:00.994Z,16.16
2018-07-13T23:42:05.191Z,16.16
2018-07-13T23:45:09.398Z,16.13
2018-07-13T23:48:13.571Z,16.14
2018-07-13T23:51:17.813Z,16.16
2018-07-13T23:54:22.092Z,16.18
2018-07-13T23:57:26.303Z,16.16
